createdAt,value
2019-04-25T00:00:07.163Z,63.00
2019-04-25T00:02:38.276Z,63.00
2019-04-25T00:05:08.284Z,63.00
2019-04-25T00:07:37.324Z,63.00
2019-04-25T00:10:06.985Z,63.00
2019-04-25T00:12:37.860Z,63.10
2019-04-25T00:15:08.637Z,63.20
2019-04-25T00:17:38.598Z,63.30
2019-04-25T00:20:11.109Z,63.30
2019-04-25T00:22:42.866Z,63.50
2019-04-25T00:25:31.320Z,63.60
2019-04-25T00:28:01.806Z,63.70
2019-04-25T00:30:32.699Z,63.70
2019-04-25T00:33:02.017Z,64.50
2019-04-25T00:35:31.599Z,64.00
2019-04-25T00:38:02.251Z,64.00
2019-04-25T00:40:31.861Z,63.60
2019-04-25T00:43:01.626Z,64.50
2019-04-25T00:45:31.726Z,64.70
2019-04-25T00:48:02.441Z,65.00
2019-04-25T00:50:32.058Z,65.30
2019-04-25T00:53:01.260Z,65.50
2019-04-25T00:55:31.472Z,65.80
2019-04-25T00:58:04.708Z,66.90
2019-04-25T01:00:44.880Z,66.20
2019-04-25T01:03:24.488Z,66.50
2019-04-25T01:05:54.570Z,66.50
2019-04-25T01:08:23.944Z,66.50
2019-04-25T01:10:53.219Z,66.50
2019-04-25T01:13:22.600Z,66.50
2019-04-25T01:15:52.875Z,66.60
2019-04-25T01:18:23.164Z,66.60
2019-04-25T01:20:53.632Z,67.20
2019-04-25T01:23:23.742Z,66.70
2019-04-25T01:25:53.717Z,66.80
2019-04-25T01:28:24.346Z,67.00
2019-04-25T01:30:54.779Z,67.10
2019-04-25T01:33:25.752Z,67.50
2019-04-25T01:36:03.438Z,67.60
2019-04-25T01:38:37.269Z,67.70
2019-04-25T01:41:24.775Z,67.90
2019-04-25T01:43:59.728Z,68.10
2019-04-25T01:46:29.503Z,68.30
2019-04-25T01:48:58.734Z,68.60
2019-04-25T01:51:27.937Z,68.70
2019-04-25T01:53:56.963Z,68.80
2019-04-25T01:56:26.015Z,68.90
2019-04-25T01:58:55.895Z,69.00
2019-04-25T02:01:25.310Z,69.10
2019-04-25T02:03:54.646Z,69.20
2019-04-25T02:06:24.871Z,69.40
2019-04-25T02:08:55.262Z,69.40
2019-04-25T02:11:35.317Z,69.40
2019-04-25T02:14:06.317Z,69.50
2019-04-25T02:16:35.472Z,69.70
2019-04-25T02:19:05.059Z,69.70
2019-04-25T02:21:34.268Z,69.90
2019-04-25T02:24:04.334Z,70.00
2019-04-25T02:26:34.296Z,70.20
2019-04-25T02:29:04.685Z,70.40
2019-04-25T02:31:34.818Z,70.40
2019-04-25T02:34:08.208Z,70.50
2019-04-25T02:36:34.966Z,70.70
2019-04-25T02:39:09.160Z,70.70
2019-04-25T02:41:38.264Z,71.60
2019-04-25T02:44:09.960Z,70.90
2019-04-25T02:46:51.717Z,71.60
2019-04-25T02:49:34.882Z,71.00
2019-04-25T02:52:13.066Z,71.20
2019-04-25T02:54:40.319Z,71.20
2019-04-25T02:57:09.356Z,71.30
2019-04-25T02:59:38.397Z,71.40
2019-04-25T03:02:09.229Z,71.30
2019-04-25T03:04:38.670Z,71.50
2019-04-25T03:07:11.106Z,72.40
2019-04-25T03:09:38.476Z,71.30
2019-04-25T03:12:09.521Z,71.40
2019-04-25T03:14:38.856Z,71.40
2019-04-25T03:17:09.817Z,71.50
2019-04-25T03:19:49.566Z,71.50
2019-04-25T03:22:26.423Z,71.60
2019-04-25T03:24:54.893Z,71.60
2019-04-25T03:27:25.319Z,71.80
2019-04-25T03:29:54.555Z,71.70
2019-04-25T03:32:28.018Z,71.80
2019-04-25T03:34:54.884Z,71.80
2019-04-25T03:37:24.125Z,71.80
2019-04-25T03:39:53.517Z,71.90
2019-04-25T03:42:23.996Z,72.00
2019-04-25T03:44:53.805Z,71.90
2019-04-25T03:47:23.552Z,71.90
2019-04-25T03:49:55.392Z,71.90
2019-04-25T03:52:24.094Z,72.00
2019-04-25T03:54:53.479Z,72.00
2019-04-25T03:57:23.249Z,72.00
2019-04-25T03:59:53.651Z,72.10
2019-04-25T04:02:23.520Z,72.10
2019-04-25T04:04:53.734Z,72.10
2019-04-25T04:07:23.818Z,72.10
2019-04-25T04:09:53.314Z,72.10
2019-04-25T04:12:24.292Z,72.30
2019-04-25T04:14:53.833Z,72.30
2019-04-25T04:17:30.616Z,72.30
2019-04-25T04:20:01.307Z,72.50
2019-04-25T04:22:31.985Z,72.40
2019-04-25T04:25:03.727Z,72.40
2019-04-25T04:27:33.647Z,72.30
2019-04-25T04:30:07.992Z,72.50
2019-04-25T04:32:37.197Z,72.40
2019-04-25T04:35:07.307Z,72.50
2019-04-25T04:37:36.483Z,72.50
2019-04-25T04:40:09.623Z,72.50
2019-04-25T04:42:38.775Z,72.50
2019-04-25T04:45:08.473Z,72.60
2019-04-25T04:47:37.567Z,72.60
2019-04-25T04:50:06.928Z,72.60
2019-04-25T04:52:35.969Z,72.60
2019-04-25T04:55:09.734Z,72.60
2019-04-25T04:57:37.198Z,72.60
2019-04-25T05:00:08.076Z,72.60
2019-04-25T05:02:54.065Z,72.50
2019-04-25T05:05:40.206Z,72.40
2019-04-25T05:08:14.958Z,72.40
2019-04-25T05:10:44.538Z,72.30
2019-04-25T05:13:15.450Z,72.20
2019-04-25T05:15:44.614Z,72.20
2019-04-25T05:18:15.646Z,72.00
2019-04-25T05:20:44.601Z,71.90
2019-04-25T05:23:15.112Z,71.80
2019-04-25T05:25:44.397Z,71.70
2019-04-25T05:28:16.156Z,71.50
2019-04-25T05:30:48.891Z,71.30
2019-04-25T05:33:20.929Z,71.30
2019-04-25T05:35:48.680Z,71.00
2019-04-25T05:38:17.734Z,70.90
2019-04-25T05:40:48.406Z,70.70
2019-04-25T05:43:18.354Z,70.50
2019-04-25T05:45:47.457Z,70.40
2019-04-25T05:48:17.179Z,70.20
2019-04-25T05:50:46.306Z,69.70
2019-04-25T05:53:16.204Z,69.40
2019-04-25T05:55:45.437Z,69.20
2019-04-25T05:58:14.509Z,68.80
2019-04-25T06:00:44.191Z,68.60
2019-04-25T06:03:13.730Z,68.20
2019-04-25T06:05:43.311Z,68.00
2019-04-25T06:08:14.131Z,67.70
2019-04-25T06:10:45.247Z,67.40
2019-04-25T06:13:33.346Z,67.20
2019-04-25T06:16:04.191Z,66.90
2019-04-25T06:18:34.889Z,66.70
2019-04-25T06:21:04.775Z,66.40
2019-04-25T06:23:54.418Z,66.10
2019-04-25T06:26:34.125Z,66.10
2019-04-25T06:28:59.538Z,65.80
2019-04-25T06:31:26.867Z,65.50
2019-04-25T06:33:56.514Z,65.50
2019-04-25T06:36:25.614Z,65.30
2019-04-25T06:38:54.804Z,65.00
2019-04-25T06:41:25.846Z,64.90
2019-04-25T06:43:56.414Z,64.80
2019-04-25T06:46:27.112Z,64.50
2019-04-25T06:49:03.630Z,64.50
2019-04-25T06:51:51.829Z,64.20
2019-04-25T06:54:21.973Z,64.00
2019-04-25T06:56:53.504Z,63.80
2019-04-25T06:59:24.922Z,63.60
2019-04-25T07:01:54.052Z,63.30
2019-04-25T07:04:26.226Z,63.30
2019-04-25T07:06:55.073Z,63.10
2019-04-25T07:09:26.793Z,63.00
2019-04-25T07:11:55.030Z,62.80
2019-04-25T07:14:25.864Z,62.50
2019-04-25T07:16:54.842Z,62.20
2019-04-25T07:19:25.955Z,62.80
2019-04-25T07:21:54.704Z,61.70
2019-04-25T07:24:24.971Z,61.40
2019-04-25T07:27:13.773Z,61.10
2019-04-25T07:29:47.296Z,61.00
2019-04-25T07:32:17.983Z,60.50
2019-04-25T07:34:47.384Z,60.30
2019-04-25T07:37:16.441Z,60.00
2019-04-25T07:39:45.492Z,59.90
2019-04-25T07:42:14.632Z,59.70
2019-04-25T07:44:52.099Z,59.50
2019-04-25T07:47:15.965Z,59.30
2019-04-25T07:49:45.314Z,59.20
2019-04-25T07:52:14.401Z,58.80
2019-04-25T07:54:43.988Z,58.60
2019-04-25T07:57:13.522Z,58.30
2019-04-25T07:59:43.615Z,58.10
2019-04-25T08:02:13.375Z,57.70
2019-04-25T08:04:44.217Z,57.40
2019-04-25T08:07:14.227Z,57.00
2019-04-25T08:09:44.277Z,56.60
2019-04-25T08:12:13.532Z,56.30
2019-04-25T08:14:46.667Z,56.00
2019-04-25T08:17:35.815Z,55.60
2019-04-25T08:20:07.454Z,55.50
2019-04-25T08:22:50.303Z,55.30
2019-04-25T08:25:08.436Z,55.20
2019-04-25T08:27:37.474Z,55.10
2019-04-25T08:30:06.977Z,54.80
2019-04-25T08:32:36.467Z,54.60
2019-04-25T08:35:06.825Z,54.30
2019-04-25T08:37:36.603Z,54.20
2019-04-25T08:40:06.534Z,54.00
2019-04-25T08:42:36.689Z,53.70
2019-04-25T08:45:06.843Z,53.40
2019-04-25T08:47:37.313Z,53.30
2019-04-25T08:50:28.938Z,53.10
2019-04-25T08:52:54.384Z,53.00
2019-04-25T08:55:41.829Z,52.80
2019-04-25T08:58:18.253Z,52.60
2019-04-25T09:00:59.052Z,52.40
2019-04-25T09:03:21.346Z,52.30
2019-04-25T09:05:50.788Z,52.10
2019-04-25T09:08:19.907Z,52.00
2019-04-25T09:10:48.929Z,51.70
2019-04-25T09:13:17.977Z,51.40
2019-04-25T09:15:47.016Z,50.90
2019-04-25T09:18:16.052Z,50.50
2019-04-25T09:20:46.585Z,50.40
2019-04-25T09:23:15.916Z,50.20
2019-04-25T09:25:46.090Z,49.80
2019-04-25T09:28:15.405Z,49.50
2019-04-25T09:30:45.635Z,49.30
2019-04-25T09:33:14.917Z,49.20
2019-04-25T09:35:45.744Z,49.10
2019-04-25T09:38:14.737Z,49.10
2019-04-25T09:40:44.463Z,49.10
2019-04-25T09:43:14.571Z,49.10
2019-04-25T09:46:03.262Z,48.90
2019-04-25T09:48:40.364Z,48.60
2019-04-25T09:51:17.029Z,48.20
2019-04-25T09:53:51.233Z,47.90
2019-04-25T09:56:24.739Z,47.70
2019-04-25T09:58:55.477Z,47.40
2019-04-25T10:01:25.247Z,47.30
2019-04-25T10:03:54.427Z,47.30
2019-04-25T10:06:23.765Z,47.30
2019-04-25T10:08:54.263Z,47.30
2019-04-25T10:11:23.777Z,47.20
2019-04-25T10:14:02.084Z,47.00
2019-04-25T10:16:31.121Z,46.90
2019-04-25T10:19:00.212Z,46.70
2019-04-25T10:21:28.996Z,46.50
2019-04-25T10:23:58.049Z,46.20
2019-04-25T10:26:28.586Z,45.70
2019-04-25T10:28:57.690Z,45.40
2019-04-25T10:31:26.786Z,45.10
2019-04-25T10:33:55.832Z,44.80
2019-04-25T10:36:25.144Z,44.60
2019-04-25T10:39:04.024Z,44.50
2019-04-25T10:41:24.939Z,44.20
2019-04-25T10:43:55.901Z,44.20
2019-04-25T10:46:24.746Z,44.00
2019-04-25T10:48:55.909Z,43.90
2019-04-25T10:51:24.581Z,43.60
2019-04-25T10:53:55.001Z,43.50
2019-04-25T10:56:24.374Z,43.20
2019-04-25T10:58:54.996Z,43.20
2019-04-25T11:01:24.557Z,43.20
2019-04-25T11:04:01.178Z,43.30
2019-04-25T11:06:30.305Z,43.30
2019-04-25T11:08:59.349Z,43.20
2019-04-25T11:11:29.991Z,43.10
2019-04-25T11:13:59.013Z,42.90
2019-04-25T11:16:28.129Z,42.50
2019-04-25T11:18:57.170Z,42.20
2019-04-25T11:21:26.245Z,41.90
2019-04-25T11:23:55.579Z,41.70
2019-04-25T11:26:25.145Z,41.50
2019-04-25T11:28:54.458Z,41.20
2019-04-25T11:31:28.501Z,41.00
2019-04-25T11:33:57.701Z,40.80
2019-04-25T11:36:26.787Z,40.50
2019-04-25T11:39:11.417Z,40.40
2019-04-25T11:41:40.457Z,40.30
2019-04-25T11:44:09.200Z,40.00
2019-04-25T11:46:39.363Z,39.70
2019-04-25T11:49:08.575Z,39.60
2019-04-25T11:51:37.609Z,39.60
2019-04-25T11:54:06.886Z,39.50
2019-04-25T11:56:35.705Z,39.40
2019-04-25T11:59:05.088Z,39.90
2019-04-25T12:01:34.134Z,39.20
2019-04-25T12:04:04.090Z,39.10
2019-04-25T12:06:33.464Z,39.00
2019-04-25T12:09:04.116Z,39.00
2019-04-25T12:11:34.155Z,38.90
2019-04-25T12:14:04.326Z,38.90
2019-04-25T12:16:33.219Z,39.00
2019-04-25T12:19:02.275Z,39.00
2019-04-25T12:21:31.012Z,38.90
2019-04-25T12:24:01.803Z,38.90
2019-04-25T12:26:30.249Z,38.50
2019-04-25T12:28:59.010Z,38.30
2019-04-25T12:31:27.805Z,38.20
2019-04-25T12:33:57.593Z,38.10
2019-04-25T12:36:26.499Z,38.00
2019-04-25T12:38:55.614Z,38.00
2019-04-25T12:41:24.561Z,38.00
2019-04-25T12:43:57.768Z,37.90
2019-04-25T12:46:28.149Z,37.90
2019-04-25T12:48:57.702Z,37.90
2019-04-25T12:51:26.525Z,37.80
2019-04-25T12:53:56.068Z,37.70
2019-04-25T12:56:24.894Z,37.50
2019-04-25T12:58:54.801Z,37.00
2019-04-25T13:01:24.895Z,37.50
2019-04-25T13:03:54.396Z,37.30
2019-04-25T13:06:24.208Z,37.30
2019-04-25T13:08:54.280Z,37.20
2019-04-25T13:11:24.052Z,37.30
2019-04-25T13:13:53.007Z,37.00
2019-04-25T13:16:21.981Z,37.00
2019-04-25T13:18:51.016Z,36.80
2019-04-25T13:21:19.817Z,36.70
2019-04-25T13:23:48.738Z,37.20
2019-04-25T13:26:19.181Z,36.50
2019-04-25T13:28:54.010Z,36.50
2019-04-25T13:31:24.557Z,36.40
2019-04-25T13:33:54.953Z,36.20
2019-04-25T13:36:24.151Z,36.00
2019-04-25T13:38:53.975Z,36.00
2019-04-25T13:41:23.110Z,35.80
2019-04-25T13:43:53.040Z,35.80
2019-04-25T13:46:25.865Z,35.80
2019-04-25T13:48:54.382Z,35.90
2019-04-25T13:51:24.649Z,35.80
2019-04-25T13:53:54.588Z,35.70
2019-04-25T13:56:25.921Z,35.70
2019-04-25T13:58:54.345Z,35.60
2019-04-25T14:01:24.689Z,35.40
2019-04-25T14:03:54.269Z,35.30
2019-04-25T14:06:23.974Z,35.10
2019-04-25T14:08:53.382Z,35.00
2019-04-25T14:11:23.988Z,34.70
2019-04-25T14:13:53.159Z,34.50
2019-04-25T14:16:25.343Z,34.30
2019-04-25T14:18:55.655Z,34.10
2019-04-25T14:21:25.126Z,34.00
2019-04-25T14:23:54.882Z,33.80
2019-04-25T14:26:23.642Z,33.70
2019-04-25T14:28:54.091Z,33.60
2019-04-25T14:31:39.332Z,33.40
2019-04-25T14:33:55.048Z,33.20
2019-04-25T14:36:25.810Z,33.10
2019-04-25T14:38:54.524Z,33.10
2019-04-25T14:41:23.782Z,32.90
2019-04-25T14:43:52.741Z,32.90
2019-04-25T14:46:21.487Z,32.80
2019-04-25T14:48:50.362Z,32.60
2019-04-25T14:51:19.162Z,32.60
2019-04-25T14:53:47.901Z,32.50
2019-04-25T14:56:18.566Z,32.30
2019-04-25T14:58:47.325Z,32.30
2019-04-25T15:01:17.693Z,32.20
2019-04-25T15:03:46.457Z,31.90
2019-04-25T15:06:15.249Z,31.90
2019-04-25T15:08:44.006Z,31.80
2019-04-25T15:11:12.721Z,31.80
2019-04-25T15:13:41.467Z,31.90
2019-04-25T15:16:10.292Z,31.80
2019-04-25T15:18:46.422Z,31.90
2019-04-25T15:21:09.515Z,31.80
2019-04-25T15:23:38.269Z,31.70
2019-04-25T15:26:08.008Z,31.50
2019-04-25T15:28:36.754Z,31.40
2019-04-25T15:31:05.496Z,31.30
2019-04-25T15:33:35.295Z,31.30
2019-04-25T15:36:17.794Z,31.00
2019-04-25T15:38:57.234Z,30.80
2019-04-25T15:41:39.515Z,30.70
2019-04-25T15:44:12.889Z,30.60
2019-04-25T15:46:46.284Z,30.60
2019-04-25T15:49:15.141Z,30.50
2019-04-25T15:51:43.878Z,30.40
2019-04-25T15:54:12.631Z,30.50
2019-04-25T15:56:41.548Z,30.60
2019-04-25T15:59:10.549Z,30.50
2019-04-25T16:01:39.289Z,30.50
2019-04-25T16:04:08.041Z,30.60
2019-04-25T16:06:36.800Z,30.50
2019-04-25T16:09:06.719Z,30.60
2019-04-25T16:11:35.572Z,30.90
2019-04-25T16:14:04.836Z,31.00
2019-04-25T16:16:33.568Z,31.30
2019-04-25T16:19:02.401Z,31.50
2019-04-25T16:21:31.356Z,31.70
2019-04-25T16:24:00.234Z,31.90
2019-04-25T16:26:29.551Z,32.00
2019-04-25T16:28:58.493Z,32.10
2019-04-25T16:31:28.967Z,32.20
2019-04-25T16:33:57.722Z,32.30
2019-04-25T16:36:27.243Z,32.40
2019-04-25T16:38:55.988Z,32.60
2019-04-25T16:41:24.994Z,32.70
2019-04-25T16:43:55.376Z,32.90
2019-04-25T16:46:24.516Z,33.10
2019-04-25T16:48:53.306Z,33.20
2019-04-25T16:51:22.459Z,33.40
2019-04-25T16:53:51.303Z,33.60
2019-04-25T16:56:20.091Z,33.80
2019-04-25T16:58:48.832Z,34.00
2019-04-25T17:01:17.696Z,34.10
2019-04-25T17:03:46.685Z,34.30
2019-04-25T17:06:15.507Z,34.30
2019-04-25T17:08:44.799Z,34.50
2019-04-25T17:11:13.794Z,34.70
2019-04-25T17:13:44.275Z,34.80
2019-04-25T17:16:31.061Z,34.90
2019-04-25T17:19:01.434Z,35.10
2019-04-25T17:21:31.318Z,35.30
2019-04-25T17:24:00.405Z,35.50
2019-04-25T17:26:30.371Z,35.60
2019-04-25T17:29:01.003Z,35.80
2019-04-25T17:31:34.700Z,36.00
2019-04-25T17:34:10.902Z,36.10
2019-04-25T17:36:44.188Z,36.20
2019-04-25T17:39:15.158Z,36.30
2019-04-25T17:41:43.942Z,36.40
2019-04-25T17:44:12.742Z,36.50
2019-04-25T17:46:41.907Z,36.60
2019-04-25T17:49:12.898Z,36.60
2019-04-25T17:51:41.966Z,36.70
2019-04-25T17:54:10.930Z,36.80
2019-04-25T17:56:40.885Z,37.00
2019-04-25T17:59:09.799Z,37.20
2019-04-25T18:01:40.560Z,37.20
2019-04-25T18:04:09.686Z,37.30
2019-04-25T18:06:38.714Z,38.10
2019-04-25T18:09:08.085Z,37.50
2019-04-25T18:11:38.036Z,37.70
2019-04-25T18:14:07.038Z,37.80
2019-04-25T18:16:44.903Z,38.00
2019-04-25T18:19:15.923Z,38.20
2019-04-25T18:21:45.101Z,38.30
2019-04-25T18:24:32.296Z,38.50
2019-04-25T18:27:08.662Z,38.60
2019-04-25T18:29:37.453Z,38.70
2019-04-25T18:32:06.686Z,38.80
2019-04-25T18:34:54.109Z,38.90
2019-04-25T18:37:24.800Z,39.00
2019-04-25T18:39:58.195Z,39.10
2019-04-25T18:42:31.701Z,39.20
2019-04-25T18:45:00.728Z,39.30
2019-04-25T18:47:29.751Z,39.40
2019-04-25T18:49:58.809Z,39.50
2019-04-25T18:52:35.303Z,39.60
2019-04-25T18:55:24.047Z,39.60
2019-04-25T18:58:07.056Z,39.90
2019-04-25T19:00:54.312Z,39.90
2019-04-25T19:03:41.827Z,40.10
2019-04-25T19:06:12.515Z,40.10
2019-04-25T19:08:41.407Z,40.30
2019-04-25T19:11:10.174Z,40.30
2019-04-25T19:13:39.583Z,40.40
2019-04-25T19:16:08.711Z,40.60
2019-04-25T19:18:37.778Z,40.70
2019-04-25T19:21:08.881Z,40.80
2019-04-25T19:23:38.104Z,40.90
2019-04-25T19:26:07.153Z,41.00
2019-04-25T19:28:36.156Z,41.00
2019-04-25T19:31:05.255Z,41.10
2019-04-25T19:33:36.061Z,41.30
2019-04-25T19:36:05.183Z,41.30
2019-04-25T19:38:34.221Z,41.40
2019-04-25T19:41:10.647Z,41.60
2019-04-25T19:43:44.553Z,41.60
2019-04-25T19:46:13.789Z,41.70
2019-04-25T19:48:43.503Z,41.80
2019-04-25T19:51:12.709Z,41.90
2019-04-25T19:53:41.755Z,42.00
2019-04-25T19:56:11.265Z,42.10
2019-04-25T19:58:42.064Z,42.30
2019-04-25T20:01:11.067Z,42.40
2019-04-25T20:03:58.726Z,42.50
2019-04-25T20:06:29.512Z,42.60
2019-04-25T20:09:00.197Z,42.80
2019-04-25T20:11:30.890Z,42.90
2019-04-25T20:13:59.967Z,43.00
2019-04-25T20:16:30.653Z,43.10
2019-04-25T20:18:59.691Z,43.30
2019-04-25T20:21:29.778Z,43.40
2019-04-25T20:23:58.833Z,43.50
2019-04-25T20:26:27.887Z,43.60
2019-04-25T20:28:56.953Z,43.70
2019-04-25T20:31:26.044Z,43.80
2019-04-25T20:34:05.424Z,44.50
2019-04-25T20:36:26.019Z,44.00
2019-04-25T20:38:55.412Z,44.20
2019-04-25T20:41:24.592Z,44.40
2019-04-25T20:43:53.647Z,44.40
2019-04-25T20:46:22.691Z,44.60
2019-04-25T20:48:52.294Z,44.70
2019-04-25T20:51:21.447Z,44.80
2019-04-25T20:53:50.756Z,44.90
2019-04-25T20:56:19.886Z,45.00
2019-04-25T20:58:49.110Z,45.10
2019-04-25T21:01:18.245Z,45.30
2019-04-25T21:03:47.533Z,45.30
2019-04-25T21:06:28.281Z,45.40
2019-04-25T21:08:57.618Z,45.60
2019-04-25T21:11:26.761Z,45.70
2019-04-25T21:14:03.470Z,45.90
2019-04-25T21:16:40.614Z,46.00
2019-04-25T21:19:11.307Z,46.10
2019-04-25T21:21:40.409Z,46.20
2019-04-25T21:24:09.449Z,46.30
2019-04-25T21:26:38.519Z,46.40
2019-04-25T21:29:07.616Z,46.40
2019-04-25T21:31:37.124Z,46.60
2019-04-25T21:34:06.149Z,46.60
2019-04-25T21:36:35.467Z,46.70
2019-04-25T21:39:07.798Z,46.70
2019-04-25T21:41:39.027Z,46.80
2019-04-25T21:44:08.738Z,46.90
2019-04-25T21:46:37.791Z,46.80
2019-04-25T21:49:07.196Z,46.80
2019-04-25T21:51:36.226Z,46.70
2019-04-25T21:54:05.553Z,46.70
2019-04-25T21:56:34.889Z,46.60
2019-04-25T21:59:04.290Z,46.70
2019-04-25T22:01:35.190Z,46.70
2019-04-25T22:04:05.246Z,46.70
2019-04-25T22:06:34.680Z,46.90
2019-04-25T22:09:05.888Z,47.00
2019-04-25T22:11:34.924Z,47.10
2019-04-25T22:14:04.627Z,47.30
2019-04-25T22:16:34.759Z,47.30
2019-04-25T22:19:04.869Z,47.50
2019-04-25T22:21:38.376Z,47.50
2019-04-25T22:24:11.063Z,47.70
2019-04-25T22:26:36.404Z,47.80
2019-04-25T22:29:05.798Z,48.00
2019-04-25T22:31:52.767Z,48.00
2019-04-25T22:34:23.818Z,48.10
2019-04-25T22:36:52.853Z,48.30
2019-04-25T22:39:21.908Z,48.30
2019-04-25T22:41:51.343Z,48.30
2019-04-25T22:44:22.216Z,48.40
2019-04-25T22:46:51.662Z,48.50
2019-04-25T22:49:20.759Z,48.40
2019-04-25T22:51:49.794Z,48.50
2019-04-25T22:54:19.112Z,48.50
2019-04-25T22:56:48.201Z,48.50
2019-04-25T22:59:17.452Z,48.40
2019-04-25T23:01:48.131Z,48.60
2019-04-25T23:04:36.873Z,48.60
2019-04-25T23:07:06.023Z,48.60
2019-04-25T23:09:36.548Z,48.60
2019-04-25T23:12:06.635Z,48.80
2019-04-25T23:14:36.067Z,48.80
2019-04-25T23:17:05.145Z,49.00
2019-04-25T23:19:34.325Z,49.10
2019-04-25T23:22:04.772Z,49.30
2019-04-25T23:24:35.915Z,49.50
2019-04-25T23:27:25.253Z,49.70
2019-04-25T23:29:54.366Z,49.90
2019-04-25T23:32:23.567Z,50.10
2019-04-25T23:34:52.623Z,50.30
2019-04-25T23:37:21.641Z,50.40
2019-04-25T23:39:50.683Z,50.70
2019-04-25T23:42:19.699Z,50.80
2019-04-25T23:44:49.039Z,51.00
2019-04-25T23:47:18.171Z,51.20
2019-04-25T23:49:47.229Z,51.30
2019-04-25T23:52:17.211Z,51.50
2019-04-25T23:54:46.403Z,51.60
2019-04-25T23:57:15.815Z,51.70
2019-04-25T23:59:44.856Z,52.30
